Time;durP1;ratioP1;P1;durP2;ratioP2;P2;SDS_P1;SDS_P2;PMS_P1;PMS_P2;Temp;Humidity;BMP_temperature;BMP_pressure;BME280_temperature;BME280_humidity;BME280_pressure;Samples;Min_cycle;Max_cycle;Signal;HPM_P1;HPM_P2
2023/04/12 00:00:09;;;;;;;4.10;3.62;;;;;;;7.01;100.00;100177.70;4942747;58;1138777;-72
2023/04/12 00:05:14;;;;;;;4.17;3.37;;;;;;;6.97;100.00;100164.38;4942624;58;1138800;-72
2023/04/12 00:10:20;;;;;;;4.08;3.10;;;;;;;7.01;100.00;100172.44;4962234;57;1138991;-71
2023/04/12 00:15:26;;;;;;;3.83;3.33;;;;;;;7.04;100.00;100168.73;5023693;57;1138992;-68
2023/04/12 00:20:31;;;;;;;4.37;3.70;;;;;;;7.02;100.00;100164.92;5023532;57;1138971;-68
2023/04/12 00:25:38;;;;;;;3.40;3.10;;;;;;;6.99;100.00;100161.17;5043772;57;1138913;-69
2023/04/12 00:30:44;;;;;;;2.77;2.57;;;;;;;6.99;100.00;100166.44;5023603;57;1138790;-68
2023/04/12 00:35:50;;;;;;;3.70;3.10;;;;;;;6.98;100.00;100162.59;5023114;57;1139066;-71
2023/04/12 00:40:56;;;;;;;4.47;3.37;;;;;;;6.97;100.00;100160.91;5023776;57;1138905;-69
2023/04/12 00:46:03;;;;;;;5.57;4.50;;;;;;;6.97;100.00;100160.44;4998041;57;1138878;-69
2023/04/12 00:51:08;;;;;;;4.42;3.40;;;;;;;6.93;100.00;100150.23;4942291;57;1138938;-68
2023/04/12 00:56:14;;;;;;;4.67;4.20;;;;;;;6.92;100.00;100157.27;4942702;57;1138848;-72
2023/04/12 01:01:20;;;;;;;3.90;3.60;;;;;;;6.94;100.00;100152.75;4962158;57;1138936;-70
2023/04/12 01:07:02;;;;;;;3.47;3.17;;;;;;;6.91;100.00;100154.74;4933520;57;1138998;-69
2023/04/12 01:12:29;;;;;;;4.10;3.70;;;;;;;6.88;100.00;100159.73;4907260;58;1138980;-71
2023/04/12 01:17:45;;;;;;;5.67;3.70;;;;;;;6.88;100.00;100164.14;5027987;57;1138889;-69
2023/04/12 01:23:38;;;;;;;7.00;3.50;;;;;;;6.84;100.00;100154.34;5029568;57;1139130;-69
2023/04/12 01:28:45;;;;;;;4.17;3.77;;;;;;;6.80;100.00;100158.11;5043107;57;1139005;-68
2023/04/12 01:33:54;;;;;;;4.20;3.73;;;;;;;6.82;100.00;100160.16;5014510;57;1138966;-72
2023/04/12 01:39:03;;;;;;;10.32;5.47;;;;;;;6.84;100.00;100167.48;4985141;57;1139007;-69
2023/04/12 01:44:08;;;;;;;4.87;3.75;;;;;;;6.82;100.00;100164.11;5003122;57;1140945;-71
2023/04/12 01:49:16;;;;;;;4.73;4.33;;;;;;;6.83;100.00;100166.27;4964216;57;1139211;-73
2023/04/12 01:54:28;;;;;;;6.85;4.37;;;;;;;6.81;100.00;100166.84;4903981;58;1138919;-70
2023/04/12 01:59:38;;;;;;;7.77;4.73;;;;;;;6.80;100.00;100163.37;4915511;58;1138910;-70
2023/04/12 02:04:45;;;;;;;6.37;4.70;;;;;;;6.83;100.00;100157.91;4983457;57;1138934;-67
2023/04/12 02:09:50;;;;;;;6.83;5.13;;;;;;;6.82;100.00;100157.53;4983842;57;1138912;-70
2023/04/12 02:14:57;;;;;;;7.67;4.07;;;;;;;6.81;100.00;100152.37;4984020;57;1138905;-70
2023/04/12 02:20:13;;;;;;;6.03;5.13;;;;;;;6.84;100.00;100150.39;5003406;57;1138829;-72
2023/04/12 02:25:16;;;;;;;4.77;4.07;;;;;;;6.87;100.00;100152.82;4983461;57;1138947;-69
2023/04/12 02:30:22;;;;;;;4.72;4.12;;;;;;;6.85;100.00;100150.77;4984053;57;1138927;-70
2023/04/12 02:35:31;;;;;;;6.25;3.50;;;;;;;6.82;100.00;100152.28;5003424;58;1138794;-71
2023/04/12 02:40:41;;;;;;;5.03;3.50;;;;;;;6.82;100.00;100140.92;4983196;57;1138867;-70
2023/04/12 02:45:49;;;;;;;6.40;3.83;;;;;;;6.81;100.00;100141.87;4967252;57;1138841;-72
2023/04/12 02:50:54;;;;;;;4.57;4.10;;;;;;;6.81;100.00;100148.44;4915933;57;1138822;-73
2023/04/12 02:56:03;;;;;;;6.87;4.87;;;;;;;6.82;100.00;100145.71;4925836;57;1138936;-70
2023/04/12 03:01:12;;;;;;;8.43;5.00;;;;;;;6.85;100.00;100151.23;4933259;57;1138781;-68
2023/04/12 03:06:18;;;;;;;6.07;4.37;;;;;;;6.83;100.00;100144.77;4982347;57;1138993;-70
2023/04/12 03:11:24;;;;;;;8.60;5.40;;;;;;;6.82;100.00;100135.67;4944404;57;1139128;-71
2023/04/12 03:16:31;;;;;;;10.20;4.90;;;;;;;6.82;100.00;100143.08;4983792;57;1139072;-71
2023/04/12 03:21:38;;;;;;;10.00;5.63;;;;;;;6.79;100.00;100131.92;4982638;57;1140953;-71
2023/04/12 03:26:45;;;;;;;7.30;5.70;;;;;;;6.77;100.00;100132.50;5004457;57;1140841;-69
2023/04/12 03:31:52;;;;;;;5.00;4.43;;;;;;;6.77;100.00;100128.56;4997906;57;1139074;-71
2023/04/12 03:37:01;;;;;;;9.20;5.27;;;;;;;6.74;100.00;100120.41;4984180;57;1138858;-72
2023/04/12 03:42:08;;;;;;;6.83;5.50;;;;;;;6.77;100.00;100121.98;5002812;57;1138775;-71
2023/04/12 03:47:15;;;;;;;5.70;4.87;;;;;;;6.79;100.00;100117.47;4865870;59;1138871;-71
2023/04/12 03:52:21;;;;;;;7.03;5.17;;;;;;;6.80;100.00;100110.80;4774129;59;1139496;-69
2023/04/12 03:57:27;;;;;;;8.50;5.28;;;;;;;6.75;100.00;100107.63;4698499;61;1138890;-68
2023/04/12 04:02:33;;;;;;;16.30;6.53;;;;;;;6.75;100.00;100107.63;4835932;59;1138908;-71
2023/04/12 04:07:40;;;;;;;10.90;6.67;;;;;;;6.74;100.00;100110.36;4871209;59;1140995;-70
2023/04/12 04:12:46;;;;;;;10.20;7.28;;;;;;;6.74;100.00;100109.89;4999354;57;1141293;-68
2023/04/12 04:17:52;;;;;;;8.98;6.20;;;;;;;6.76;100.00;100107.16;4984231;57;1141060;-71
2023/04/12 04:22:58;;;;;;;7.67;5.93;;;;;;;6.79;100.00;100109.11;4984500;57;1139364;-69
2023/04/12 04:28:06;;;;;;;13.23;6.03;;;;;;;6.84;100.00;100109.66;5003658;58;1138849;-71
2023/04/12 04:33:14;;;;;;;9.03;7.40;;;;;;;6.86;100.00;100107.77;4983872;57;1140929;-69
2023/04/12 04:38:24;;;;;;;7.23;5.17;;;;;;;6.85;100.00;100115.28;4984049;57;1138894;-71
2023/04/12 04:43:34;;;;;;;10.35;7.08;;;;;;;6.83;100.00;100110.59;5002875;57;1139041;-71
2023/04/12 04:48:37;;;;;;;7.87;6.00;;;;;;;6.84;100.00;100114.06;4936096;57;1140923;-69
2023/04/12 04:53:42;;;;;;;9.20;7.07;;;;;;;6.85;100.00;100118.37;4907262;58;1138829;-70
2023/04/12 04:58:50;;;;;;;7.37;6.28;;;;;;;6.91;100.00;100124.04;4894405;58;1138952;-70
2023/04/12 05:03:56;;;;;;;13.23;6.90;;;;;;;6.94;100.00;100123.84;4994191;57;1138765;-71
2023/04/12 05:09:04;;;;;;;10.63;7.20;;;;;;;6.92;100.00;100126.20;4762612;59;1140818;-72
2023/04/12 05:14:11;;;;;;;10.83;7.40;;;;;;;6.87;100.00;100125.69;5006435;57;1141004;-71
2023/04/12 05:19:18;;;;;;;8.17;6.83;;;;;;;6.87;100.00;100125.22;5006839;57;1140925;-69
2023/04/12 05:24:24;;;;;;;12.15;7.35;;;;;;;6.89;100.00;100136.91;4984424;57;1139106;-71
2023/04/12 05:29:30;;;;;;;11.15;8.18;;;;;;;6.93;100.00;100144.97;4983814;57;1140892;-70
2023/04/12 05:34:36;;;;;;;10.53;7.73;;;;;;;6.94;100.00;100138.77;5003219;57;1141309;-71
2023/04/12 05:39:42;;;;;;;16.53;8.70;;;;;;;6.96;100.00;100144.30;4983629;57;1140846;-70
2023/04/12 05:44:49;;;;;;;19.60;11.30;;;;;;;6.96;100.00;100145.61;4972443;57;1140790;-67
2023/04/12 05:49:56;;;;;;;24.10;15.43;;;;;;;6.97;100.00;100141.19;4941863;57;1143146;-69
2023/04/12 05:55:02;;;;;;;26.90;17.03;;;;;;;6.98;100.00;100144.19;4924961;58;1143091;-67
2023/04/12 06:00:18;;;;;;;36.07;18.77;;;;;;;6.92;100.00;100146.75;4918351;57;1143090;-69
2023/04/12 06:05:24;;;;;;;37.97;20.00;;;;;;;6.84;100.00;100139.03;4983652;57;1142989;-69
2023/04/12 06:10:29;;;;;;;32.95;19.25;;;;;;;6.78;100.00;100138.97;4967035;57;1143059;-70
2023/04/12 06:15:36;;;;;;;35.33;18.70;;;;;;;6.79;100.00;100135.40;4985813;57;1143158;-69
2023/04/12 06:20:41;;;;;;;33.77;21.47;;;;;;;6.80;100.00;100131.83;4983385;57;1143031;-67
2023/04/12 06:25:49;;;;;;;37.50;20.83;;;;;;;6.81;100.00;100132.67;5002534;57;1143003;-70
2023/04/12 06:30:55;;;;;;;48.47;23.03;;;;;;;6.80;100.00;100131.83;4983126;57;1143080;-68
2023/04/12 06:36:02;;;;;;;41.85;25.68;;;;;;;6.82;100.00;100126.00;4958212;57;1143444;-69
2023/04/12 06:41:08;;;;;;;44.07;23.83;;;;;;;6.85;100.00;100123.16;4993387;57;1143128;-69
2023/04/12 06:46:17;;;;;;;40.57;21.77;;;;;;;6.89;100.00;100121.98;4980122;57;1143227;-68
2023/04/12 06:51:22;;;;;;;41.60;22.03;;;;;;;6.90;100.00;100119.72;4970656;57;1143025;-72
2023/04/12 06:56:28;;;;;;;35.88;20.48;;;;;;;6.94;100.00;100122.99;4964068;57;1143232;-69
2023/04/12 07:01:33;;;;;;;33.15;19.77;;;;;;;6.96;100.00;100115.84;4966006;57;1143059;-69
2023/04/12 07:06:39;;;;;;;37.60;23.60;;;;;;;6.96;100.00;100105.33;4957836;57;1143233;-74
2023/04/12 07:11:44;;;;;;;35.03;21.97;;;;;;;6.99;100.00;100106.44;4985678;57;1143056;-75
2023/04/12 07:16:50;;;;;;;41.83;21.47;;;;;;;7.01;100.00;100097.50;5024981;57;1143191;-75
2023/04/12 07:21:56;;;;;;;30.50;19.05;;;;;;;7.05;100.00;100094.16;5019404;57;1143101;-74
2023/04/12 07:27:02;;;;;;;32.20;17.33;;;;;;;7.11;100.00;100100.80;5026030;57;1143245;-74
2023/04/12 07:32:10;;;;;;;38.33;20.90;;;;;;;7.09;100.00;100103.52;5006236;57;1143228;-75
2023/04/12 07:37:16;;;;;;;31.67;17.90;;;;;;;7.08;100.00;100103.16;4992897;56;1142996;-74
2023/04/12 07:42:22;;;;;;;21.13;15.40;;;;;;;7.13;100.00;100102.84;4961257;57;1143155;-74
2023/04/12 07:47:27;;;;;;;27.02;18.32;;;;;;;7.17;100.00;100098.59;4990990;57;1143180;-76
2023/04/12 07:52:33;;;;;;;30.57;16.20;;;;;;;7.15;100.00;100096.53;4936945;58;1142970;-74
2023/04/12 07:57:39;;;;;;;20.17;12.97;;;;;;;7.21;100.00;100090.83;4974483;57;1143415;-75
2023/04/12 08:02:45;;;;;;;27.73;15.77;;;;;;;7.30;100.00;100087.56;4991348;57;1143040;-75
2023/04/12 08:07:51;;;;;;;17.23;13.63;;;;;;;7.36;100.00;100091.05;5006316;57;1143004;-75
2023/04/12 08:12:56;;;;;;;23.70;15.28;;;;;;;7.41;100.00;100081.53;4947364;57;1143062;-75
2023/04/12 08:18:03;;;;;;;20.13;13.40;;;;;;;7.51;100.00;100083.02;4951684;58;1143032;-74
2023/04/12 08:23:08;;;;;;;23.80;14.63;;;;;;;7.56;100.00;100087.48;4876781;58;1143073;-75
2023/04/12 08:28:14;;;;;;;14.93;11.13;;;;;;;7.63;100.00;100083.00;4853525;59;1142983;-75
2023/04/12 08:33:20;;;;;;;19.23;11.75;;;;;;;7.75;100.00;100078.63;4889907;58;1143178;-75
2023/04/12 08:38:26;;;;;;;14.13;10.82;;;;;;;7.90;100.00;100080.61;4888642;58;1143231;-75
2023/04/12 08:43:34;;;;;;;18.82;11.78;;;;;;;7.96;100.00;100068.30;4930288;58;1143204;-74
2023/04/12 08:48:45;;;;;;;14.77;10.43;;;;;;;7.97;100.00;100072.61;4995578;57;1143218;-74
2023/04/12 08:53:52;;;;;;;16.73;10.00;;;;;;;8.01;100.00;100077.55;4928307;58;1142965;-75
2023/04/12 08:58:59;;;;;;;14.05;9.05;;;;;;;8.05;100.00;100077.69;4930868;57;1143138;-74
2023/04/12 09:04:07;;;;;;;15.63;10.40;;;;;;;8.14;100.00;100072.20;5013590;57;1140951;-75
2023/04/12 09:09:12;;;;;;;16.47;11.63;;;;;;;8.25;100.00;100084.59;5022585;57;1143114;-74
2023/04/12 09:14:24;;;;;;;18.63;11.20;;;;;;;8.33;100.00;100067.75;5005522;57;1143117;-74
2023/04/12 09:19:36;;;;;;;17.70;9.03;;;;;;;8.45;100.00;100066.81;5043088;57;1142995;-74
2023/04/12 09:24:52;;;;;;;18.50;12.67;;;;;;;8.63;100.00;100060.14;5023173;57;1140942;-75
2023/04/12 09:30:11;;;;;;;52.10;24.77;;;;;;;8.63;100.00;100060.14;5012200;57;1143071;-76
2023/04/12 09:35:17;;;;;;;12.63;8.37;;;;;;;8.72;100.00;100054.63;4942308;57;1142953;-74
2023/04/12 09:40:24;;;;;;;12.97;8.57;;;;;;;8.83;100.00;100037.52;4961857;57;1141140;-74
2023/04/12 09:45:34;;;;;;;10.08;6.65;;;;;;;9.03;100.00;100032.82;4971195;57;1141154;-75
2023/04/12 09:50:39;;;;;;;8.65;6.62;;;;;;;9.17;100.00;100033.87;5004837;57;1141136;-75
2023/04/12 09:55:47;;;;;;;14.57;9.20;;;;;;;9.18;100.00;100028.97;5048869;56;1138855;-74
2023/04/12 10:00:54;;;;;;;12.60;8.33;;;;;;;9.13;100.00;100023.23;4985719;57;1141085;-76
2023/04/12 10:06:01;;;;;;;13.95;7.33;;;;;;;9.10;100.00;100022.16;4932233;57;1141221;-75
2023/04/12 10:11:08;;;;;;;18.27;12.40;;;;;;;9.06;100.00;100011.96;4963016;57;1140938;-76
2023/04/12 10:16:16;;;;;;;99.80;50.00;;;;;;;9.05;100.00;100022.15;5013454;57;1143079;-74
2023/04/12 10:21:23;;;;;;;11.95;5.72;;;;;;;9.07;100.00;100009.20;5021254;57;1143366;-75
2023/04/12 10:26:29;;;;;;;8.30;5.20;;;;;;;9.12;100.00;100012.33;5004063;57;1141091;-76
2023/04/12 10:31:35;;;;;;;8.90;5.77;;;;;;;9.13;100.00;99990.26;4932942;57;1139044;-76
2023/04/12 10:36:59;;;;;;;20.30;11.53;;;;;;;9.18;100.00;99993.34;4933532;58;1136754;-74
2023/04/12 10:42:25;;;;;;;20.90;9.10;;;;;;;9.39;100.00;99979.39;4951244;56;1147708;-75
2023/04/12 10:48:00;;;;;;;9.93;6.97;;;;;;;9.88;100.00;99969.60;5021450;57;1138988;-75
2023/04/12 10:53:17;;;;;;;11.57;5.40;;;;;;;10.29;100.00;99960.84;5000627;57;1136810;-75
2023/04/12 10:58:51;;;;;;;9.53;5.93;;;;;;;10.86;100.00;99958.09;4956492;57;1140895;-75
2023/04/12 11:04:24;;;;;;;13.13;10.97;;;;;;;11.32;100.00;99954.86;4898940;58;1138858;-74
2023/04/12 11:09:42;;;;;;;8.18;6.60;;;;;;;11.33;100.00;99958.34;4927754;58;1142965;-76
2023/04/12 11:14:51;;;;;;;51.03;27.00;;;;;;;11.28;100.00;99947.70;4785881;59;1138791;-76
2023/04/12 11:20:03;;;;;;;8.37;5.63;;;;;;;11.44;100.00;99933.92;4988118;57;1142939;-76
2023/04/12 11:25:09;;;;;;;20.30;11.50;;;;;;;11.63;100.00;99923.30;4929720;57;1138786;-75
2023/04/12 11:30:15;;;;;;;30.13;12.50;;;;;;;11.54;100.00;99918.86;4921656;57;1143182;-73
2023/04/12 11:35:26;;;;;;;9.97;6.77;;;;;;;11.32;100.00;99916.95;4902342;58;1142931;-74
2023/04/12 11:40:28;;;;;;;49.00;22.93;;;;;;;11.23;100.00;99920.80;4902512;57;1138922;-75
2023/04/12 11:45:35;;;;;;;12.23;6.80;;;;;;;11.21;100.00;99917.45;4958334;58;1143054;-75
2023/04/12 11:50:41;;;;;;;5.00;4.53;;;;;;;11.13;100.00;99908.05;4983170;58;1140925;-74
2023/04/12 11:55:51;;;;;;;7.37;5.40;;;;;;;11.03;100.00;99906.34;5000304;57;1138854;-75
2023/04/12 12:00:58;;;;;;;5.57;4.37;;;;;;;11.00;100.00;99906.12;4921764;57;1142687;-74
2023/04/12 12:06:04;;;;;;;6.63;4.87;;;;;;;11.06;100.00;99897.64;4961034;58;1138915;-74
2023/04/12 12:11:10;;;;;;;8.57;6.20;;;;;;;11.08;100.00;99886.44;4954007;57;1139143;-75
2023/04/12 12:16:17;;;;;;;6.37;5.37;;;;;;;11.09;100.00;99880.66;5022535;57;1138889;-75
2023/04/12 12:21:23;;;;;;;5.27;4.77;;;;;;;11.07;100.00;99865.41;4988562;57;1138944;-75
2023/04/12 12:26:29;;;;;;;5.33;4.35;;;;;;;11.03;100.00;99859.55;4941816;57;1138909;-73
2023/04/12 12:31:34;;;;;;;10.70;4.92;;;;;;;10.98;100.00;99854.34;4941969;58;1138965;-73
2023/04/12 12:36:40;;;;;;;5.60;4.80;;;;;;;11.02;100.00;99845.12;4998794;58;1140999;-76
2023/04/12 12:59:40;;;;;;;10.70;5.43;;;;;;;11.14;100.00;99823.70;4214904;64;1138975;-74
2023/04/12 13:04:47;;;;;;;6.37;5.13;;;;;;;11.40;100.00;99816.51;4526197;64;1141001;-74
2023/04/12 13:09:53;;;;;;;3.83;3.43;;;;;;;11.59;100.00;99802.75;4441237;64;1139106;-74
2023/04/12 13:15:10;;;;;;;;;;;;;;;;;;;;;
2023/04/12 13:20:29;;;;;;;15.93;6.50;;;;;;;12.00;100.00;99790.58;4320125;65;1143019;-75
2023/04/12 13:25:34;;;;;;;5.85;3.90;;;;;;;11.96;100.00;99796.66;4340671;66;1141048;-77
2023/04/12 13:30:40;;;;;;;15.07;7.23;;;;;;;11.82;100.00;99797.97;4478079;61;1138929;-76
2023/04/12 13:35:46;;;;;;;7.47;5.27;;;;;;;11.68;100.00;99791.77;4641466;60;1140940;-76
2023/04/12 13:40:51;;;;;;;20.10;7.87;;;;;;;11.59;100.00;99780.73;4642053;61;1139037;-77
2023/04/12 13:45:58;;;;;;;25.23;13.10;;;;;;;11.54;100.00;99781.64;4657726;61;1141023;-74
2023/04/12 13:51:03;;;;;;;6.77;5.10;;;;;;;11.54;100.00;99769.23;4740315;59;1143107;-76
2023/04/12 13:56:10;;;;;;;23.12;8.98;;;;;;;11.58;100.00;99767.14;4870350;57;1139018;-76
2023/04/12 14:01:16;;;;;;;15.63;7.20;;;;;;;11.56;100.00;99761.98;5009554;57;1140801;-75
2023/04/12 14:06:22;;;;;;;9.83;6.83;;;;;;;11.72;100.00;99758.73;4988601;57;1140795;-75
2023/04/12 14:11:27;;;;;;;11.07;7.80;;;;;;;11.77;100.00;99751.19;4801195;58;1138880;-75
2023/04/12 14:16:33;;;;;;;12.82;5.62;;;;;;;11.66;100.00;99756.64;5043464;57;1141106;-76
2023/04/12 14:21:39;;;;;;;5.35;4.85;;;;;;;11.67;100.00;99750.37;5023632;57;1140912;-75
2023/04/12 14:26:44;;;;;;;4.33;3.90;;;;;;;11.71;100.00;99739.00;5023826;57;1139155;-75
2023/04/12 14:31:50;;;;;;;4.73;3.50;;;;;;;11.79;100.00;99745.27;5043202;57;1138757;-76
2023/04/12 14:36:56;;;;;;;7.17;4.40;;;;;;;11.84;100.00;99750.13;5023959;56;1138773;-75
2023/04/12 14:42:02;;;;;;;7.17;5.12;;;;;;;11.83;100.00;99743.16;4850791;59;1139003;-75
2023/04/12 14:47:08;;;;;;;12.77;5.27;;;;;;;11.91;100.00;99743.28;4980311;56;1138880;-75
2023/04/12 15:07:03;;;;;;;7.50;3.63;;;;;;;12.01;100.00;99727.33;5050429;56;46698;-74
2023/04/12 15:12:09;;;;;;;11.33;5.20;;;;;;;12.27;100.00;99716.35;4925100;57;1135064;-74
2023/04/12 15:17:15;;;;;;;17.67;7.33;;;;;;;12.35;100.00;99712.48;4954196;56;1140889;-74
2023/04/12 15:22:21;;;;;;;10.83;5.60;;;;;;;12.34;100.00;99706.83;4860448;58;1140949;-74
2023/04/12 15:27:27;;;;;;;10.40;7.60;;;;;;;12.27;100.00;99696.47;4994358;57;1140866;-75
2023/04/12 15:32:32;;;;;;;4.37;4.00;;;;;;;12.28;100.00;99687.53;5031223;57;1140848;-72
2023/04/12 15:37:39;;;;;;;3.17;2.97;;;;;;;12.38;100.00;99688.29;5013132;56;1138824;-73
2023/04/12 15:42:44;;;;;;;5.43;4.67;;;;;;;12.24;97.86;99687.48;5013345;57;1138744;-74
2023/04/12 15:47:50;;;;;;;13.77;4.57;;;;;;;12.24;99.66;99686.16;5032954;57;1136958;-74
2023/04/12 15:52:58;;;;;;;9.75;4.58;;;;;;;12.38;100.00;99684.80;5012776;57;1138937;-74
2023/04/12 15:58:02;;;;;;;5.65;3.42;;;;;;;12.54;98.95;99679.66;5012853;57;1138938;-74
2023/04/12 16:03:08;;;;;;;52.90;25.30;;;;;;;12.61;97.22;99683.38;5005626;57;1136774;-74
2023/04/12 16:08:14;;;;;;;67.10;30.40;;;;;;;12.51;89.23;99678.16;5010375;56;1140970;-74
2023/04/12 16:13:20;;;;;;;99.47;47.87;;;;;;;12.44;89.01;99667.81;4886220;57;1141029;-73
2023/04/12 16:18:29;;;;;;;33.73;11.57;;;;;;;12.45;92.49;99665.98;4870105;58;1141369;-72
2023/04/12 16:23:32;;;;;;;9.27;3.60;;;;;;;12.46;87.41;99652.58;4831233;56;1140932;-74
2023/04/12 16:28:42;;;;;;;17.80;9.25;;;;;;;12.42;87.93;99662.31;4853849;59;1136732;-73
2023/04/12 16:33:49;;;;;;;24.17;13.00;;;;;;;12.36;85.24;99656.30;4954537;57;1138935;-73
2023/04/12 16:38:57;;;;;;;20.00;13.75;;;;;;;12.42;88.68;99650.37;4950229;58;1140860;-73
2023/04/12 16:44:02;;;;;;;12.50;9.08;;;;;;;12.34;87.85;99655.12;4950092;57;1140965;-74
2023/04/12 16:49:08;;;;;;;11.23;6.00;;;;;;;12.20;82.60;99647.70;4969607;57;1139029;-74
2023/04/12 16:54:13;;;;;;;14.33;6.23;;;;;;;12.15;81.06;99648.63;4950185;58;1139045;-74
2023/04/12 16:59:19;;;;;;;12.80;5.50;;;;;;;12.10;83.71;99652.21;4984835;55;1138800;-75
2023/04/12 17:04:25;;;;;;;35.23;13.73;;;;;;;12.01;84.82;99659.25;5106074;55;1138882;-73
2023/04/12 17:09:31;;;;;;;7.57;4.17;;;;;;;11.90;85.12;99662.95;5110301;56;1141079;-73
2023/04/12 17:14:37;;;;;;;5.50;3.67;;;;;;;11.80;86.00;99655.53;5031683;56;1136724;-73
2023/04/12 17:19:45;;;;;;;14.10;6.47;;;;;;;11.69;86.79;99655.70;5031725;56;1136764;-73
2023/04/12 17:24:50;;;;;;;14.87;7.30;;;;;;;11.56;86.78;99649.92;5050938;56;1138805;-72
2023/04/12 17:29:57;;;;;;;59.10;20.77;;;;;;;11.43;87.15;99650.26;5031347;56;1139078;-73
2023/04/12 17:35:05;;;;;;;76.53;29.00;;;;;;;11.27;87.44;99652.20;5033448;55;1141098;-75
2023/04/12 17:40:11;;;;;;;116.83;54.87;;;;;;;11.15;88.48;99650.67;5110859;56;1141031;-75
2023/04/12 17:45:18;;;;;;;68.43;35.70;;;;;;;11.07;89.40;99648.42;5030781;56;1143176;-75
2023/04/12 17:50:23;;;;;;;115.00;58.53;;;;;;;11.02;90.79;99649.33;4960380;55;1140824;-75
2023/04/12 17:55:29;;;;;;;94.03;49.40;;;;;;;10.96;91.50;99652.56;5008777;56;1143111;-75
2023/04/12 18:00:35;;;;;;;89.57;43.47;;;;;;;10.91;92.29;99647.69;4997487;56;1140956;-75
2023/04/12 18:05:41;;;;;;;91.33;39.47;;;;;;;10.84;92.85;99641.31;5006909;57;1141011;-74
2023/04/12 18:10:47;;;;;;;60.12;26.25;;;;;;;10.80;93.60;99638.59;5025575;57;1140961;-75
2023/04/12 18:15:53;;;;;;;27.40;12.55;;;;;;;10.73;93.81;99653.34;5035271;56;1141040;-75
2023/04/12 18:20:58;;;;;;;18.62;8.73;;;;;;;10.64;93.92;99651.07;4925302;56;1141056;-75
2023/04/12 18:26:06;;;;;;;17.60;8.20;;;;;;;10.51;94.64;99651.85;4986023;56;1139380;-74
2023/04/12 18:31:11;;;;;;;16.70;9.57;;;;;;;10.44;95.33;99653.37;5083318;56;1138704;-75
2023/04/12 18:36:17;;;;;;;29.63;15.40;;;;;;;10.34;95.65;99662.62;5050834;56;1139050;-75
2023/04/12 18:41:23;;;;;;;20.17;11.20;;;;;;;10.23;96.29;99660.61;4923681;57;1140965;-75
2023/04/12 18:46:29;;;;;;;26.23;14.00;;;;;;;10.13;96.85;99660.55;5064748;56;1141101;-75
2023/04/12 18:51:35;;;;;;;45.87;22.93;;;;;;;10.05;97.22;99659.92;4911658;57;1141012;-75
2023/04/12 18:56:44;;;;;;;28.15;14.53;;;;;;;9.99;97.96;99656.50;4964152;56;1141004;-69
2023/04/12 19:01:50;;;;;;;33.23;16.77;;;;;;;9.93;98.48;99650.94;4975196;56;1138913;-68
2023/04/12 19:06:56;;;;;;;40.75;18.90;;;;;;;9.86;99.19;99656.75;4940663;57;1138908;-68
2023/04/12 19:12:04;;;;;;;35.50;15.50;;;;;;;9.83;99.97;99646.94;4982485;56;1138855;-69
2023/04/12 19:17:09;;;;;;;28.70;12.13;;;;;;;9.80;100.00;99652.48;5022980;57;1138746;-68
2023/04/12 19:22:15;;;;;;;17.90;8.83;;;;;;;9.74;100.00;99652.55;4991980;57;1140960;-68
2023/04/12 19:27:22;;;;;;;24.37;12.23;;;;;;;9.76;100.00;99655.06;4982598;57;1138944;-72
2023/04/12 19:32:29;;;;;;;23.07;13.13;;;;;;;9.76;100.00;99647.14;4987480;57;1141119;-70
2023/04/12 19:37:35;;;;;;;39.60;17.77;;;;;;;9.74;100.00;99638.03;4980809;57;1140812;-69
2023/04/12 19:42:40;;;;;;;48.85;20.37;;;;;;;9.72;100.00;99643.09;4997610;57;1141129;-72
2023/04/12 19:47:46;;;;;;;25.57;14.97;;;;;;;9.67;100.00;99644.81;5001735;57;1140868;-73
2023/04/12 19:52:52;;;;;;;28.13;14.23;;;;;;;9.66;100.00;99646.27;4999205;57;1140866;-68
2023/04/12 19:57:59;;;;;;;29.45;12.98;;;;;;;9.62;100.00;99641.76;4988629;57;1141009;-71
2023/04/12 20:03:05;;;;;;;21.50;12.90;;;;;;;9.60;100.00;99632.30;5013126;57;1141005;-69
2023/04/12 20:08:11;;;;;;;28.65;15.35;;;;;;;9.58;100.00;99633.75;4874011;58;1141073;-70
2023/04/12 20:13:17;;;;;;;29.70;15.87;;;;;;;9.53;100.00;99632.82;4897783;57;1141070;-72
2023/04/12 20:18:22;;;;;;;27.23;15.47;;;;;;;9.46;100.00;99629.55;5008706;56;1141026;-74
2023/04/12 20:23:28;;;;;;;24.70;15.13;;;;;;;9.40;100.00;99626.11;5010613;56;1140847;-71
2023/04/12 20:28:34;;;;;;;23.13;14.20;;;;;;;9.36;100.00;99631.30;5032808;56;1141081;-72
2023/04/12 20:33:41;;;;;;;23.57;13.40;;;;;;;9.31;100.00;99621.64;5033052;56;1141034;-71
2023/04/12 20:38:47;;;;;;;23.80;14.57;;;;;;;9.31;100.00;99617.69;5052880;56;1140909;-71
2023/04/12 20:43:53;;;;;;;27.53;14.70;;;;;;;9.30;100.00;99598.86;5032326;56;1140909;-72
2023/04/12 20:48:59;;;;;;;25.30;15.28;;;;;;;9.27;100.00;99597.31;5016308;56;1140936;-71
2023/04/12 20:54:05;;;;;;;25.63;14.27;;;;;;;9.19;100.00;99590.53;5032315;57;1141010;-74
2023/04/12 20:59:11;;;;;;;22.83;13.97;;;;;;;9.20;100.00;99597.48;5010643;57;1140867;-69
2023/04/12 21:04:18;;;;;;;29.53;15.00;;;;;;;9.23;100.00;99591.95;5035935;56;1140898;-71
2023/04/12 21:09:25;;;;;;;25.13;14.80;;;;;;;9.22;100.00;99587.64;5035750;57;1141012;-71
2023/04/12 21:14:33;;;;;;;26.77;13.67;;;;;;;9.14;100.00;99584.36;5060386;56;1140983;-72
2023/04/12 21:19:40;;;;;;;27.30;14.47;;;;;;;9.08;100.00;99576.13;5006860;57;1140953;-70
2023/04/12 21:24:45;;;;;;;22.15;13.62;;;;;;;9.05;100.00;99575.06;5031866;57;1141197;-70
2023/04/12 21:29:51;;;;;;;22.10;13.40;;;;;;;9.03;100.00;99573.04;5051321;57;1140843;-72
2023/04/12 21:34:57;;;;;;;22.95;14.10;;;;;;;9.02;100.00;99581.44;5031571;57;1141051;-73
2023/04/12 21:40:08;;;;;;;22.63;14.53;;;;;;;8.99;100.00;99579.56;5044425;56;1140863;-68
2023/04/12 21:45:14;;;;;;;20.87;13.80;;;;;;;8.96;100.00;99574.55;5051413;56;1141012;-70
2023/04/12 21:50:19;;;;;;;23.73;14.93;;;;;;;8.93;100.00;99557.67;5016072;56;1140919;-69
2023/04/12 21:55:29;;;;;;;25.90;15.60;;;;;;;8.91;100.00;99555.16;4989836;57;1141294;-71
2023/04/12 22:00:36;;;;;;;31.10;15.73;;;;;;;8.89;100.00;99525.93;4992766;56;1140897;-72
2023/04/12 22:05:43;;;;;;;26.33;15.37;;;;;;;8.81;100.00;99526.13;4991762;57;1140916;-71
2023/04/12 22:10:49;;;;;;;28.70;15.07;;;;;;;8.78;100.00;99515.84;4982728;57;1140923;-72
2023/04/12 22:15:54;;;;;;;25.10;13.90;;;;;;;8.72;100.00;99515.03;4982030;57;1141032;-73
2023/04/12 22:21:02;;;;;;;28.53;15.27;;;;;;;8.71;100.00;99512.05;4984216;57;1141516;-71
2023/04/12 22:26:13;;;;;;;24.50;15.40;;;;;;;8.66;100.00;99502.88;5024370;56;1141101;-71
2023/04/12 22:31:21;;;;;;;24.93;14.03;;;;;;;8.60;100.00;99508.18;4983614;58;1140903;-71
2023/04/12 22:36:26;;;;;;;24.40;15.47;;;;;;;8.56;100.00;99503.30;5012419;57;1140891;-70
2023/04/12 22:41:36;;;;;;;26.83;15.33;;;;;;;8.53;100.00;99496.99;5011269;57;1140875;-72
2023/04/12 22:46:46;;;;;;;25.63;15.60;;;;;;;8.51;100.00;99494.48;5032355;55;1140882;-71
2023/04/12 22:51:49;;;;;;;25.27;16.13;;;;;;;8.46;100.00;99488.77;4999157;56;1140898;-69
2023/04/12 22:56:55;;;;;;;24.57;13.80;;;;;;;8.42;100.00;99490.81;5020707;57;1141199;-72
2023/04/12 23:02:01;;;;;;;24.20;15.75;;;;;;;8.43;100.00;99493.80;4980192;57;1141258;-70
2023/04/12 23:07:06;;;;;;;20.72;13.50;;;;;;;8.45;100.00;99496.31;4976102;57;1141040;-69
2023/04/12 23:12:12;;;;;;;22.25;14.58;;;;;;;8.45;100.00;99497.63;4998556;57;1140894;-72
2023/04/12 23:17:18;;;;;;;25.67;14.33;;;;;;;8.44;100.00;99502.06;4930783;57;1140923;-69
2023/04/12 23:22:37;;;;;;;25.60;16.27;;;;;;;8.46;100.00;99501.94;4959394;57;1141093;-70
2023/04/12 23:27:40;;;;;;;28.30;17.20;;;;;;;8.44;100.00;99495.48;4951650;57;1141103;-71
2023/04/12 23:32:46;;;;;;;26.73;16.50;;;;;;;8.42;100.00;99487.34;5029491;56;1141093;-68
2023/04/12 23:37:52;;;;;;;22.77;14.30;;;;;;;8.39;100.00;99478.41;4956284;57;1141092;-70